sensor_id;sensor_type;location;lat;lon;timestamp;pressure;altitude;pressure_sealevel;temperature;humidity
4705;BME280;2366;51.332;6.610;2022-07-03T00:00:37;101531.41;;;21.99;52.65
4705;BME280;2366;51.332;6.610;2022-07-03T00:03:03;101530.16;;;21.84;53.46
4705;BME280;2366;51.332;6.610;2022-07-03T00:05:28;101529.75;;;21.79;53.71
4705;BME280;2366;51.332;6.610;2022-07-03T00:07:54;101539.47;;;21.71;54.38
4705;BME280;2366;51.332;6.610;2022-07-03T00:10:19;101545.84;;;21.70;54.43
4705;BME280;2366;51.332;6.610;2022-07-03T00:12:45;101541.44;;;21.69;54.33
4705;BME280;2366;51.332;6.610;2022-07-03T00:15:11;101538.31;;;21.74;54.46
4705;BME280;2366;51.332;6.610;2022-07-03T00:17:36;101537.13;;;21.86;54.24
4705;BME280;2366;51.332;6.610;2022-07-03T00:20:02;101545.50;;;21.93;54.31
4705;BME280;2366;51.332;6.610;2022-07-03T00:22:30;101546.91;;;21.97;54.75
4705;BME280;2366;51.332;6.610;2022-07-03T00:25:06;101540.88;;;22.03;54.18
4705;BME280;2366;51.332;6.610;2022-07-03T00:27:33;101540.59;;;22.06;54.19
4705;BME280;2366;51.332;6.610;2022-07-03T00:30:00;101541.69;;;22.13;53.83
4705;BME280;2366;51.332;6.610;2022-07-03T00:32:27;101538.00;;;22.14;53.87
4705;BME280;2366;51.332;6.610;2022-07-03T00:34:54;101532.59;;;22.14;53.94
4705;BME280;2366;51.332;6.610;2022-07-03T00:37:20;101535.69;;;22.20;54.20
4705;BME280;2366;51.332;6.610;2022-07-03T00:39:47;101537.00;;;22.15;54.07
4705;BME280;2366;51.332;6.610;2022-07-03T00:42:16;101523.63;;;22.14;54.00
4705;BME280;2366;51.332;6.610;2022-07-03T00:44:46;101524.09;;;22.09;54.10
4705;BME280;2366;51.332;6.610;2022-07-03T00:47:13;101523.00;;;22.02;54.00
4705;BME280;2366;51.332;6.610;2022-07-03T00:49:40;101514.78;;;21.94;54.34
4705;BME280;2366;51.332;6.610;2022-07-03T00:52:08;101506.56;;;21.86;54.63
4705;BME280;2366;51.332;6.610;2022-07-03T00:54:35;101513.19;;;21.73;54.92
4705;BME280;2366;51.332;6.610;2022-07-03T00:57:02;101506.97;;;21.63;55.51
4705;BME280;2366;51.332;6.610;2022-07-03T00:59:28;101506.13;;;21.53;56.00
4705;BME280;2366;51.332;6.610;2022-07-03T01:02:02;101506.72;;;21.47;56.12
4705;BME280;2366;51.332;6.610;2022-07-03T01:07:06;101504.34;;;21.34;56.62
4705;BME280;2366;51.332;6.610;2022-07-03T01:18:20;101509.31;;;21.19;57.56
4705;BME280;2366;51.332;6.610;2022-07-03T01:20:53;101503.66;;;21.12;58.35
4705;BME280;2366;51.332;6.610;2022-07-03T01:23:56;101500.53;;;21.07;58.36
4705;BME280;2366;51.332;6.610;2022-07-03T01:26:24;101490.88;;;21.05;58.40
4705;BME280;2366;51.332;6.610;2022-07-03T01:28:52;101491.31;;;21.00;58.53
4705;BME280;2366;51.332;6.610;2022-07-03T01:31:19;101493.88;;;20.92;58.74
4705;BME280;2366;51.332;6.610;2022-07-03T01:33:46;101489.22;;;20.84;59.07
4705;BME280;2366;51.332;6.610;2022-07-03T01:36:15;101493.72;;;20.84;59.43
4705;BME280;2366;51.332;6.610;2022-07-03T01:38:41;101497.56;;;20.81;59.79
4705;BME280;2366;51.332;6.610;2022-07-03T01:41:09;101501.41;;;20.79;59.73
4705;BME280;2366;51.332;6.610;2022-07-03T01:43:55;101502.66;;;20.75;59.62
4705;BME280;2366;51.332;6.610;2022-07-03T01:46:26;101500.41;;;20.70;59.87
4705;BME280;2366;51.332;6.610;2022-07-03T01:48:54;101494.59;;;20.65;60.29
4705;BME280;2366;51.332;6.610;2022-07-03T01:51:20;101498.84;;;20.67;60.20
4705;BME280;2366;51.332;6.610;2022-07-03T01:53:49;101498.00;;;20.67;60.26
4705;BME280;2366;51.332;6.610;2022-07-03T01:56:19;101494.88;;;20.62;60.32
4705;BME280;2366;51.332;6.610;2022-07-03T01:58:45;101494.16;;;20.60;60.65
4705;BME280;2366;51.332;6.610;2022-07-03T02:01:20;101495.16;;;20.59;60.67
4705;BME280;2366;51.332;6.610;2022-07-03T02:06:43;101485.47;;;20.46;61.25
4705;BME280;2366;51.332;6.610;2022-07-03T02:09:11;101489.16;;;20.45;61.62
4705;BME280;2366;51.332;6.610;2022-07-03T02:11:38;101487.91;;;20.49;61.90
4705;BME280;2366;51.332;6.610;2022-07-03T02:16:50;101477.53;;;20.55;61.38
4705;BME280;2366;51.332;6.610;2022-07-03T02:19:17;101488.59;;;20.51;61.65
4705;BME280;2366;51.332;6.610;2022-07-03T02:21:51;101482.78;;;20.56;61.40
4705;BME280;2366;51.332;6.610;2022-07-03T02:24:20;101484.06;;;20.52;61.69
4705;BME280;2366;51.332;6.610;2022-07-03T02:26:54;101486.47;;;20.45;61.66
4705;BME280;2366;51.332;6.610;2022-07-03T02:29:28;101478.66;;;20.42;61.87
4705;BME280;2366;51.332;6.610;2022-07-03T02:32:00;101483.75;;;20.36;62.08
4705;BME280;2366;51.332;6.610;2022-07-03T02:34:30;101479.50;;;20.33;62.29
4705;BME280;2366;51.332;6.610;2022-07-03T02:36:59;101480.91;;;20.27;62.40
4705;BME280;2366;51.332;6.610;2022-07-03T02:39:57;101473.69;;;20.28;62.46
4705;BME280;2366;51.332;6.610;2022-07-03T02:42:30;101481.47;;;20.21;62.48
4705;BME280;2366;51.332;6.610;2022-07-03T02:45:03;101482.88;;;20.16;62.86
4705;BME280;2366;51.332;6.610;2022-07-03T02:50:08;101478.50;;;20.15;62.85
4705;BME280;2366;51.332;6.610;2022-07-03T03:00:58;101487.53;;;20.14;62.84
4705;BME280;2366;51.332;6.610;2022-07-03T03:03:29;101485.84;;;20.13;63.14
4705;BME280;2366;51.332;6.610;2022-07-03T03:05:59;101490.78;;;20.07;63.23
4705;BME280;2366;51.332;6.610;2022-07-03T03:11:08;101486.50;;;19.95;63.57
4705;BME280;2366;51.332;6.610;2022-07-03T03:13:35;101492.41;;;19.89;63.48
4705;BME280;2366;51.332;6.610;2022-07-03T03:16:05;101485.88;;;19.82;63.82
4705;BME280;2366;51.332;6.610;2022-07-03T03:18:34;101488.72;;;19.80;64.09
4705;BME280;2366;51.332;6.610;2022-07-03T03:21:02;101495.91;;;19.80;64.14
4705;BME280;2366;51.332;6.610;2022-07-03T03:23:48;101488.97;;;19.77;63.95
4705;BME280;2366;51.332;6.610;2022-07-03T03:26:17;101490.09;;;19.75;64.40
4705;BME280;2366;51.332;6.610;2022-07-03T03:28:42;101488.00;;;19.78;64.37
4705;BME280;2366;51.332;6.610;2022-07-03T03:31:09;101494.66;;;19.84;64.21
4705;BME280;2366;51.332;6.610;2022-07-03T03:33:43;101497.81;;;19.89;64.22
4705;BME280;2366;51.332;6.610;2022-07-03T03:36:11;101505.47;;;19.94;64.32
4705;BME280;2366;51.332;6.610;2022-07-03T03:38:38;101508.16;;;20.03;64.46
4705;BME280;2366;51.332;6.610;2022-07-03T03:41:04;101506.38;;;20.14;64.11
4705;BME280;2366;51.332;6.610;2022-07-03T03:43:30;101503.13;;;20.20;63.79
4705;BME280;2366;51.332;6.610;2022-07-03T03:45:56;101507.69;;;20.29;63.70
4705;BME280;2366;51.332;6.610;2022-07-03T03:48:22;101510.53;;;20.37;63.18
4705;BME280;2366;51.332;6.610;2022-07-03T03:50:47;101513.66;;;20.42;62.95
4705;BME280;2366;51.332;6.610;2022-07-03T03:53:14;101514.13;;;20.47;62.76
4705;BME280;2366;51.332;6.610;2022-07-03T03:56:05;101531.75;;;20.71;62.16
4705;BME280;2366;51.332;6.610;2022-07-03T03:58:34;101533.09;;;21.53;60.90
4705;BME280;2366;51.332;6.610;2022-07-03T04:01:01;101540.00;;;22.12;58.01
4705;BME280;2366;51.332;6.610;2022-07-03T04:03:28;101540.41;;;22.45;55.97
4705;BME280;2366;51.332;6.610;2022-07-03T04:05:54;101546.28;;;23.30;53.43
4705;BME280;2366;51.332;6.610;2022-07-03T04:08:20;101539.63;;;23.95;50.65
4705;BME280;2366;51.332;6.610;2022-07-03T04:10:46;101545.44;;;24.08;48.94
4705;BME280;2366;51.332;6.610;2022-07-03T04:13:12;101543.41;;;23.76;49.29
4705;BME280;2366;51.332;6.610;2022-07-03T04:15:37;101552.63;;;23.65;48.92
4705;BME280;2366;51.332;6.610;2022-07-03T04:18:02;101542.34;;;23.25;49.37
4705;BME280;2366;51.332;6.610;2022-07-03T04:20:28;101542.78;;;23.12;50.17
4705;BME280;2366;51.332;6.610;2022-07-03T04:22:53;101546.25;;;23.04;50.57
4705;BME280;2366;51.332;6.610;2022-07-03T04:25:18;101541.31;;;22.82;51.18
4705;BME280;2366;51.332;6.610;2022-07-03T04:27:44;101543.44;;;22.96;51.06
4705;BME280;2366;51.332;6.610;2022-07-03T04:30:10;101547.06;;;23.67;50.22
4705;BME280;2366;51.332;6.610;2022-07-03T04:32:36;101547.91;;;25.11;47.38
4705;BME280;2366;51.332;6.610;2022-07-03T04:35:02;101541.38;;;26.26;44.06
4705;BME280;2366;51.332;6.610;2022-07-03T04:37:28;101540.47;;;26.02;43.37
4705;BME280;2366;51.332;6.610;2022-07-03T04:39:53;101535.31;;;26.78;42.66
4705;BME280;2366;51.332;6.610;2022-07-03T04:42:19;101545.53;;;26.76;42.00
4705;BME280;2366;51.332;6.610;2022-07-03T04:44:44;101544.06;;;26.34;42.38
4705;BME280;2366;51.332;6.610;2022-07-03T04:47:09;101543.84;;;26.04;44.00
4705;BME280;2366;51.332;6.610;2022-07-03T04:49:35;101533.69;;;27.53;41.60
4705;BME280;2366;51.332;6.610;2022-07-03T04:52:00;101543.16;;;28.67;39.24
4705;BME280;2366;51.332;6.610;2022-07-03T04:54:26;101542.09;;;29.33;37.65
4705;BME280;2366;51.332;6.610;2022-07-03T04:56:51;101545.13;;;30.08;36.22
4705;BME280;2366;51.332;6.610;2022-07-03T04:59:16;101546.16;;;30.62;34.76
4705;BME280;2366;51.332;6.610;2022-07-03T05:01:42;101546.88;;;30.90;34.62
4705;BME280;2366;51.332;6.610;2022-07-03T05:04:07;101553.00;;;31.19;33.66
4705;BME280;2366;51.332;6.610;2022-07-03T05:06:32;101551.09;;;31.20;33.85
4705;BME280;2366;51.332;6.610;2022-07-03T05:08:58;101557.19;;;31.48;32.42
4705;BME280;2366;51.332;6.610;2022-07-03T05:11:23;101558.63;;;31.84;32.46
4705;BME280;2366;51.332;6.610;2022-07-03T05:13:49;101558.41;;;31.92;31.66
4705;BME280;2366;51.332;6.610;2022-07-03T05:16:14;101557.88;;;32.22;31.96
4705;BME280;2366;51.332;6.610;2022-07-03T05:18:39;101562.41;;;32.42;31.80
4705;BME280;2366;51.332;6.610;2022-07-03T05:21:05;101564.34;;;32.80;30.88
4705;BME280;2366;51.332;6.610;2022-07-03T05:23:30;101562.75;;;32.97;30.88
4705;BME280;2366;51.332;6.610;2022-07-03T05:25:55;101563.38;;;32.99;30.07
4705;BME280;2366;51.332;6.610;2022-07-03T05:28:21;101572.50;;;31.89;31.91
4705;BME280;2366;51.332;6.610;2022-07-03T05:30:46;101575.06;;;32.49;30.75
4705;BME280;2366;51.332;6.610;2022-07-03T05:33:12;101573.88;;;33.02;30.11
4705;BME280;2366;51.332;6.610;2022-07-03T05:35:37;101572.75;;;32.85;30.45
4705;BME280;2366;51.332;6.610;2022-07-03T05:38:03;101585.31;;;32.99;30.15
4705;BME280;2366;51.332;6.610;2022-07-03T05:40:28;101577.00;;;33.12;29.94
4705;BME280;2366;51.332;6.610;2022-07-03T05:42:53;101579.69;;;33.19;29.43
4705;BME280;2366;51.332;6.610;2022-07-03T05:45:19;101576.63;;;33.34;29.75
4705;BME280;2366;51.332;6.610;2022-07-03T05:47:45;101576.41;;;33.04;30.20
4705;BME280;2366;51.332;6.610;2022-07-03T05:50:10;101578.38;;;33.72;29.10
4705;BME280;2366;51.332;6.610;2022-07-03T05:52:36;101574.41;;;34.05;29.12
4705;BME280;2366;51.332;6.610;2022-07-03T05:55:01;101571.38;;;34.13;27.96
4705;BME280;2366;51.332;6.610;2022-07-03T05:57:27;101578.81;;;34.12;28.45
4705;BME280;2366;51.332;6.610;2022-07-03T05:59:52;101580.09;;;34.10;28.07
4705;BME280;2366;51.332;6.610;2022-07-03T06:02:17;101576.97;;;34.25;27.62
4705;BME280;2366;51.332;6.610;2022-07-03T06:04:43;101584.34;;;34.06;27.85
4705;BME280;2366;51.332;6.610;2022-07-03T06:07:09;101579.59;;;34.50;27.60
4705;BME280;2366;51.332;6.610;2022-07-03T06:09:34;101584.28;;;34.91;27.47
4705;BME280;2366;51.332;6.610;2022-07-03T06:12:00;101580.56;;;35.51;26.30
4705;BME280;2366;51.332;6.610;2022-07-03T06:14:25;101583.31;;;35.28;25.99
4705;BME280;2366;51.332;6.610;2022-07-03T06:16:50;101584.41;;;35.27;25.84
4705;BME280;2366;51.332;6.610;2022-07-03T06:19:16;101590.41;;;35.71;26.92
4705;BME280;2366;51.332;6.610;2022-07-03T06:21:41;101594.25;;;35.46;24.97
4705;BME280;2366;51.332;6.610;2022-07-03T06:24:07;101595.06;;;35.23;26.00
4705;BME280;2366;51.332;6.610;2022-07-03T06:26:32;101596.50;;;35.85;25.86
4705;BME280;2366;51.332;6.610;2022-07-03T06:28:57;101597.88;;;36.11;25.44
4705;BME280;2366;51.332;6.610;2022-07-03T06:31:23;101603.00;;;36.43;25.20
4705;BME280;2366;51.332;6.610;2022-07-03T06:33:48;101592.75;;;36.84;24.91
4705;BME280;2366;51.332;6.610;2022-07-03T06:36:13;101600.91;;;36.62;24.47
4705;BME280;2366;51.332;6.610;2022-07-03T06:38:39;101597.00;;;36.46;24.40
4705;BME280;2366;51.332;6.610;2022-07-03T06:41:04;101596.59;;;36.02;24.50
4705;BME280;2366;51.332;6.610;2022-07-03T06:43:29;101592.66;;;35.97;25.21
4705;BME280;2366;51.332;6.610;2022-07-03T06:45:55;101607.06;;;36.80;24.80
4705;BME280;2366;51.332;6.610;2022-07-03T06:48:20;101601.34;;;37.33;23.88
4705;BME280;2366;51.332;6.610;2022-07-03T06:50:46;101603.16;;;38.00;22.93
4705;BME280;2366;51.332;6.610;2022-07-03T06:53:11;101605.38;;;38.20;22.49
4705;BME280;2366;51.332;6.610;2022-07-03T06:55:37;101596.94;;;36.29;25.08
4705;BME280;2366;51.332;6.610;2022-07-03T06:58:02;101597.25;;;36.32;24.62
4705;BME280;2366;51.332;6.610;2022-07-03T07:00:28;101598.41;;;34.83;26.07
4705;BME280;2366;51.332;6.610;2022-07-03T07:02:53;101594.13;;;34.39;27.09
4705;BME280;2366;51.332;6.610;2022-07-03T07:05:18;101594.00;;;34.15;27.04
4705;BME280;2366;51.332;6.610;2022-07-03T07:07:44;101593.09;;;34.21;26.93
4705;BME280;2366;51.332;6.610;2022-07-03T07:10:10;101596.25;;;33.63;27.43
4705;BME280;2366;51.332;6.610;2022-07-03T07:12:35;101593.97;;;35.36;26.13
4705;BME280;2366;51.332;6.610;2022-07-03T07:15:04;101594.59;;;35.85;24.75
4705;BME280;2366;51.332;6.610;2022-07-03T07:17:29;101583.84;;;35.06;24.80
4705;BME280;2366;51.332;6.610;2022-07-03T07:19:55;101588.47;;;33.60;27.84
4705;BME280;2366;51.332;6.610;2022-07-03T07:22:21;101588.63;;;33.14;28.05
4705;BME280;2366;51.332;6.610;2022-07-03T07:24:46;101600.75;;;33.50;27.96
4705;BME280;2366;51.332;6.610;2022-07-03T07:27:12;101601.38;;;35.24;25.92
4705;BME280;2366;51.332;6.610;2022-07-03T07:29:37;101590.00;;;36.14;24.59
4705;BME280;2366;51.332;6.610;2022-07-03T07:32:03;101590.81;;;36.55;23.65
4705;BME280;2366;51.332;6.610;2022-07-03T07:34:28;101601.94;;;36.72;23.82
4705;BME280;2366;51.332;6.610;2022-07-03T07:36:54;101598.81;;;37.31;23.21
4705;BME280;2366;51.332;6.610;2022-07-03T07:39:19;101600.50;;;37.15;23.04
4705;BME280;2366;51.332;6.610;2022-07-03T07:41:44;101602.84;;;36.78;22.38
4705;BME280;2366;51.332;6.610;2022-07-03T07:44:10;101609.63;;;36.58;23.73
4705;BME280;2366;51.332;6.610;2022-07-03T07:46:35;101608.16;;;37.81;23.06
4705;BME280;2366;51.332;6.610;2022-07-03T07:49:01;101618.25;;;38.53;22.15
4705;BME280;2366;51.332;6.610;2022-07-03T07:51:26;101609.63;;;38.06;21.93
4705;BME280;2366;51.332;6.610;2022-07-03T07:53:51;101598.50;;;37.84;21.95
4705;BME280;2366;51.332;6.610;2022-07-03T07:56:22;101613.97;;;37.63;22.39
4705;BME280;2366;51.332;6.610;2022-07-03T07:58:47;101598.19;;;36.78;23.36
4705;BME280;2366;51.332;6.610;2022-07-03T08:01:13;101603.13;;;36.93;23.50
4705;BME280;2366;51.332;6.610;2022-07-03T08:03:56;101604.34;;;37.14;23.02
4705;BME280;2366;51.332;6.610;2022-07-03T08:06:40;101603.34;;;37.37;22.99
4705;BME280;2366;51.332;6.610;2022-07-03T08:09:06;101603.19;;;36.82;22.76
4705;BME280;2366;51.332;6.610;2022-07-03T08:11:31;101606.41;;;36.21;24.39
4705;BME280;2366;51.332;6.610;2022-07-03T08:13:57;101599.63;;;36.98;23.77
4705;BME280;2366;51.332;6.610;2022-07-03T08:16:22;101595.66;;;37.23;23.06
4705;BME280;2366;51.332;6.610;2022-07-03T08:18:47;101606.16;;;36.92;23.62
4705;BME280;2366;51.332;6.610;2022-07-03T08:21:13;101598.94;;;36.91;23.86
4705;BME280;2366;51.332;6.610;2022-07-03T08:23:38;101613.22;;;37.50;22.78
4705;BME280;2366;51.332;6.610;2022-07-03T08:26:04;101612.53;;;37.77;23.27
4705;BME280;2366;51.332;6.610;2022-07-03T08:28:29;101599.78;;;37.08;24.10
4705;BME280;2366;51.332;6.610;2022-07-03T08:30:54;101597.78;;;37.04;23.52
4705;BME280;2366;51.332;6.610;2022-07-03T08:33:20;101608.22;;;36.68;24.84
4705;BME280;2366;51.332;6.610;2022-07-03T08:35:45;101604.53;;;35.86;24.39
4705;BME280;2366;51.332;6.610;2022-07-03T08:38:13;101603.72;;;35.50;26.31
4705;BME280;2366;51.332;6.610;2022-07-03T08:40:40;101599.81;;;36.10;26.01
4705;BME280;2366;51.332;6.610;2022-07-03T08:43:06;101602.84;;;36.49;25.66
4705;BME280;2366;51.332;6.610;2022-07-03T08:45:33;101604.69;;;36.44;25.22
4705;BME280;2366;51.332;6.610;2022-07-03T08:47:59;101605.22;;;36.57;24.73
4705;BME280;2366;51.332;6.610;2022-07-03T08:50:25;101600.22;;;36.14;25.38
4705;BME280;2366;51.332;6.610;2022-07-03T08:52:50;101604.56;;;36.38;24.95
4705;BME280;2366;51.332;6.610;2022-07-03T08:55:17;101603.06;;;36.19;25.19
4705;BME280;2366;51.332;6.610;2022-07-03T08:57:44;101606.56;;;36.55;25.24
4705;BME280;2366;51.332;6.610;2022-07-03T09:00:16;101603.44;;;36.63;23.47
4705;BME280;2366;51.332;6.610;2022-07-03T09:02:44;101602.25;;;35.95;24.83
4705;BME280;2366;51.332;6.610;2022-07-03T09:05:11;101610.19;;;35.79;25.49
4705;BME280;2366;51.332;6.610;2022-07-03T09:07:39;101602.00;;;36.20;24.47
4705;BME280;2366;51.332;6.610;2022-07-03T09:10:07;101606.25;;;36.39;24.85
4705;BME280;2366;51.332;6.610;2022-07-03T09:12:33;101603.59;;;35.69;24.36
4705;BME280;2366;51.332;6.610;2022-07-03T09:14:59;101611.94;;;35.97;25.08
4705;BME280;2366;51.332;6.610;2022-07-03T09:17:25;101608.25;;;35.56;24.65
4705;BME280;2366;51.332;6.610;2022-07-03T09:19:50;101609.06;;;35.22;25.73
4705;BME280;2366;51.332;6.610;2022-07-03T09:24:51;101616.28;;;35.46;26.12
4705;BME280;2366;51.332;6.610;2022-07-03T09:27:19;101623.47;;;35.59;25.67
4705;BME280;2366;51.332;6.610;2022-07-03T09:30:07;101618.69;;;35.78;25.30
4705;BME280;2366;51.332;6.610;2022-07-03T09:35:19;101609.53;;;35.18;25.00
4705;BME280;2366;51.332;6.610;2022-07-03T09:37:54;101609.16;;;35.15;25.30
4705;BME280;2366;51.332;6.610;2022-07-03T09:40:20;101614.66;;;34.54;25.57
4705;BME280;2366;51.332;6.610;2022-07-03T09:42:59;101604.41;;;34.13;26.44
4705;BME280;2366;51.332;6.610;2022-07-03T09:45:25;101614.34;;;34.81;26.36
4705;BME280;2366;51.332;6.610;2022-07-03T09:47:51;101606.19;;;35.16;25.45
4705;BME280;2366;51.332;6.610;2022-07-03T09:50:16;101613.38;;;34.87;25.43
4705;BME280;2366;51.332;6.610;2022-07-03T09:52:46;101605.38;;;35.40;26.11
4705;BME280;2366;51.332;6.610;2022-07-03T09:55:17;101611.22;;;35.43;25.17
4705;BME280;2366;51.332;6.610;2022-07-03T10:05:38;101605.50;;;35.80;24.96
4705;BME280;2366;51.332;6.610;2022-07-03T10:08:10;101610.00;;;36.33;24.80
4705;BME280;2366;51.332;6.610;2022-07-03T10:10:46;101615.56;;;35.86;24.84
4705;BME280;2366;51.332;6.610;2022-07-03T10:13:13;101600.47;;;35.53;25.60
4705;BME280;2366;51.332;6.610;2022-07-03T10:15:42;101604.63;;;35.32;25.96
4705;BME280;2366;51.332;6.610;2022-07-03T10:18:12;101607.66;;;34.40;26.71
4705;BME280;2366;51.332;6.610;2022-07-03T10:23:09;101611.13;;;34.96;26.73
4705;BME280;2366;51.332;6.610;2022-07-03T10:25:35;101608.88;;;34.44;27.61
4705;BME280;2366;51.332;6.610;2022-07-03T10:28:01;101613.53;;;34.07;28.12
4705;BME280;2366;51.332;6.610;2022-07-03T10:30:27;101609.53;;;33.41;28.02
4705;BME280;2366;51.332;6.610;2022-07-03T10:32:54;101606.75;;;33.15;28.44
4705;BME280;2366;51.332;6.610;2022-07-03T10:41:07;101611.78;;;32.42;29.28
4705;BME280;2366;51.332;6.610;2022-07-03T10:43:53;101606.84;;;32.05;30.29
4705;BME280;2366;51.332;6.610;2022-07-03T10:46:37;101606.44;;;31.95;29.85
4705;BME280;2366;51.332;6.610;2022-07-03T10:49:07;101607.94;;;31.98;30.11
4705;BME280;2366;51.332;6.610;2022-07-03T11:02:36;101605.59;;;32.08;30.13
4705;BME280;2366;51.332;6.610;2022-07-03T11:07:32;101595.53;;;31.55;29.51
4705;BME280;2366;51.332;6.610;2022-07-03T11:15:46;101598.44;;;31.93;29.98
4705;BME280;2366;51.332;6.610;2022-07-03T11:18:13;101594.06;;;31.66;29.94
4705;BME280;2366;51.332;6.610;2022-07-03T11:25:50;101584.31;;;31.83;30.70
4705;BME280;2366;51.332;6.610;2022-07-03T11:36:09;101591.72;;;30.96;30.94
4705;BME280;2366;51.332;6.610;2022-07-03T11:38:35;101581.63;;;31.30;30.31
4705;BME280;2366;51.332;6.610;2022-07-03T11:41:01;101580.16;;;31.67;30.49
4705;BME280;2366;51.332;6.610;2022-07-03T11:43:27;101590.84;;;31.96;29.58
4705;BME280;2366;51.332;6.610;2022-07-03T11:45:53;101589.41;;;31.80;30.02
4705;BME280;2366;51.332;6.610;2022-07-03T11:48:22;101590.06;;;31.22;30.42
4705;BME280;2366;51.332;6.610;2022-07-03T11:50:48;101583.75;;;31.35;29.59
4705;BME280;2366;51.332;6.610;2022-07-03T11:53:27;101585.03;;;31.45;30.23
4705;BME280;2366;51.332;6.610;2022-07-03T11:56:04;101585.81;;;31.79;30.27
4705;BME280;2366;51.332;6.610;2022-07-03T11:58:59;101592.78;;;31.62;31.39
4705;BME280;2366;51.332;6.610;2022-07-03T12:04:07;101582.69;;;31.42;30.98
4705;BME280;2366;51.332;6.610;2022-07-03T12:08:59;101582.28;;;31.25;30.34
4705;BME280;2366;51.332;6.610;2022-07-03T12:11:25;101587.94;;;30.97;30.65
4705;BME280;2366;51.332;6.610;2022-07-03T12:13:50;101583.75;;;31.15;30.45
4705;BME280;2366;51.332;6.610;2022-07-03T12:16:18;101581.41;;;31.31;29.84
4705;BME280;2366;51.332;6.610;2022-07-03T12:21:10;101584.13;;;30.91;29.90
4705;BME280;2366;51.332;6.610;2022-07-03T12:26:03;101567.63;;;30.65;29.95
4705;BME280;2366;51.332;6.610;2022-07-03T12:28:30;101576.06;;;30.77;32.41
4705;BME280;2366;51.332;6.610;2022-07-03T12:30:56;101567.91;;;30.90;31.57
4705;BME280;2366;51.332;6.610;2022-07-03T12:33:22;101558.03;;;31.02;30.83
4705;BME280;2366;51.332;6.610;2022-07-03T12:36:04;101557.84;;;31.10;30.59
4705;BME280;2366;51.332;6.610;2022-07-03T12:38:30;101562.25;;;30.98;31.18
4705;BME280;2366;51.332;6.610;2022-07-03T12:41:09;101567.28;;;30.88;31.31
4705;BME280;2366;51.332;6.610;2022-07-03T12:43:39;101576.13;;;30.90;32.07
4705;BME280;2366;51.332;6.610;2022-07-03T12:48:56;101568.50;;;30.79;30.44
4705;BME280;2366;51.332;6.610;2022-07-03T12:51:50;101554.16;;;30.57;30.43
4705;BME280;2366;51.332;6.610;2022-07-03T12:54:31;101560.50;;;30.84;30.49
4705;BME280;2366;51.332;6.610;2022-07-03T12:57:10;101560.38;;;30.30;30.62
4705;BME280;2366;51.332;6.610;2022-07-03T13:00:10;101560.19;;;30.39;31.96
4705;BME280;2366;51.332;6.610;2022-07-03T13:02:40;101552.88;;;30.59;30.77
4705;BME280;2366;51.332;6.610;2022-07-03T13:05:24;101560.97;;;30.87;30.73
4705;BME280;2366;51.332;6.610;2022-07-03T13:07:55;101554.59;;;30.60;31.33
4705;BME280;2366;51.332;6.610;2022-07-03T13:10:22;101552.53;;;30.82;31.51
4705;BME280;2366;51.332;6.610;2022-07-03T13:12:53;101561.84;;;31.15;30.86
4705;BME280;2366;51.332;6.610;2022-07-03T13:15:23;101565.22;;;31.10;30.55
4705;BME280;2366;51.332;6.610;2022-07-03T13:17:55;101546.88;;;31.17;30.89
4705;BME280;2366;51.332;6.610;2022-07-03T13:20:25;101553.16;;;30.84;30.68
4705;BME280;2366;51.332;6.610;2022-07-03T13:22:53;101545.34;;;30.75;31.72
4705;BME280;2366;51.332;6.610;2022-07-03T13:25:19;101549.94;;;30.61;32.16
4705;BME280;2366;51.332;6.610;2022-07-03T13:27:46;101554.16;;;30.63;31.38
4705;BME280;2366;51.332;6.610;2022-07-03T13:30:16;101558.38;;;30.79;31.48
4705;BME280;2366;51.332;6.610;2022-07-03T13:32:42;101561.75;;;30.68;31.66
4705;BME280;2366;51.332;6.610;2022-07-03T13:35:08;101556.47;;;30.66;31.79
4705;BME280;2366;51.332;6.610;2022-07-03T13:37:34;101556.44;;;30.05;32.20
4705;BME280;2366;51.332;6.610;2022-07-03T13:40:01;101560.69;;;30.14;32.58
4705;BME280;2366;51.332;6.610;2022-07-03T13:42:26;101556.16;;;30.28;32.65
4705;BME280;2366;51.332;6.610;2022-07-03T13:44:52;101560.81;;;30.34;32.63
4705;BME280;2366;51.332;6.610;2022-07-03T13:47:17;101557.84;;;30.36;32.67
4705;BME280;2366;51.332;6.610;2022-07-03T13:49:43;101559.63;;;30.63;31.79
4705;BME280;2366;51.332;6.610;2022-07-03T13:52:09;101557.59;;;30.92;31.82
4705;BME280;2366;51.332;6.610;2022-07-03T13:54:34;101561.63;;;31.09;31.39
4705;BME280;2366;51.332;6.610;2022-07-03T13:57:01;101557.81;;;31.37;31.88
4705;BME280;2366;51.332;6.610;2022-07-03T13:59:26;101557.19;;;31.22;31.65
4705;BME280;2366;51.332;6.610;2022-07-03T14:01:52;101561.34;;;30.64;31.70
4705;BME280;2366;51.332;6.610;2022-07-03T14:04:17;101568.31;;;30.25;32.49
4705;BME280;2366;51.332;6.610;2022-07-03T14:06:42;101576.34;;;30.34;32.39
4705;BME280;2366;51.332;6.610;2022-07-03T14:09:08;101551.13;;;30.32;32.40
4705;BME280;2366;51.332;6.610;2022-07-03T14:11:33;101556.50;;;30.18;33.00
4705;BME280;2366;51.332;6.610;2022-07-03T14:13:59;101562.50;;;30.42;32.80
4705;BME280;2366;51.332;6.610;2022-07-03T14:16:24;101560.72;;;30.76;32.50
4705;BME280;2366;51.332;6.610;2022-07-03T14:18:50;101556.53;;;30.80;31.19
4705;BME280;2366;51.332;6.610;2022-07-03T14:21:15;101554.88;;;30.92;32.21
4705;BME280;2366;51.332;6.610;2022-07-03T14:23:40;101547.41;;;30.59;31.51
4705;BME280;2366;51.332;6.610;2022-07-03T14:26:06;101559.38;;;30.03;33.20
4705;BME280;2366;51.332;6.610;2022-07-03T14:28:31;101554.94;;;29.96;32.54
4705;BME280;2366;51.332;6.610;2022-07-03T14:31:16;101551.13;;;29.97;33.08
4705;BME280;2366;51.332;6.610;2022-07-03T14:33:54;101554.06;;;29.88;31.97
4705;BME280;2366;51.332;6.610;2022-07-03T14:36:20;101557.31;;;30.12;33.49
4705;BME280;2366;51.332;6.610;2022-07-03T14:38:49;101558.41;;;30.24;32.29
4705;BME280;2366;51.332;6.610;2022-07-03T14:41:14;101563.56;;;30.34;33.06
4705;BME280;2366;51.332;6.610;2022-07-03T14:43:40;101560.03;;;30.12;33.66
4705;BME280;2366;51.332;6.610;2022-07-03T14:46:05;101560.59;;;29.66;34.05
4705;BME280;2366;51.332;6.610;2022-07-03T14:48:30;101570.00;;;29.57;35.09
4705;BME280;2366;51.332;6.610;2022-07-03T14:50:56;101560.22;;;29.41;34.13